createdAt,value
2022-11-12T00:01:20.240Z,28.08
2022-11-12T00:03:48.590Z,28.17
2022-11-12T00:06:16.884Z,27.67
2022-11-12T00:08:46.368Z,28.90
2022-11-12T00:11:14.650Z,28.50
2022-11-12T00:13:43.128Z,27.98
2022-11-12T00:16:11.261Z,26.80
2022-11-12T00:18:39.473Z,25.42
2022-11-12T00:21:07.864Z,25.80
2022-11-12T00:23:35.979Z,27.27
2022-11-12T00:26:05.987Z,25.38
2022-11-12T00:28:38.037Z,31.63
2022-11-12T00:31:12.310Z,28.40
2022-11-12T00:33:44.255Z,30.73
2022-11-12T00:36:13.194Z,29.23
2022-11-12T00:38:41.408Z,26.77
2022-11-12T00:41:11.035Z,30.58
2022-11-12T00:43:39.240Z,29.27
2022-11-12T00:46:07.399Z,29.00
2022-11-12T00:48:35.557Z,30.40
2022-11-12T00:51:05.165Z,31.35
2022-11-12T00:53:33.682Z,31.88
2022-11-12T00:56:03.137Z,29.70
2022-11-12T00:58:34.117Z,31.35
2022-11-12T01:01:09.098Z,31.55
2022-11-12T01:03:37.619Z,35.08
2022-11-12T01:06:08.022Z,32.35
2022-11-12T01:08:36.312Z,34.38
2022-11-12T01:11:09.734Z,34.50
2022-11-12T01:13:44.197Z,35.63
2022-11-12T01:16:15.846Z,32.00
2022-11-12T01:18:44.399Z,31.80
2022-11-12T01:21:12.700Z,31.70
2022-11-12T01:23:42.296Z,29.83
2022-11-12T01:26:12.392Z,32.55
2022-11-12T01:28:42.762Z,27.92
2022-11-12T01:31:16.013Z,31.58
2022-11-12T01:33:45.157Z,30.80
2022-11-12T01:36:13.929Z,30.10
2022-11-12T01:38:44.285Z,29.17
2022-11-12T01:41:14.749Z,27.27
2022-11-12T01:43:44.670Z,26.17
2022-11-12T01:46:20.564Z,22.65
2022-11-12T01:48:51.947Z,25.63
2022-11-12T01:51:22.047Z,26.02
2022-11-12T01:53:56.038Z,23.95
2022-11-12T01:56:27.328Z,24.70
2022-11-12T01:59:01.464Z,24.15
2022-11-12T02:01:29.970Z,22.05
2022-11-12T02:03:58.434Z,24.25
2022-11-12T02:06:26.628Z,25.27
2022-11-12T02:08:55.274Z,26.10
2022-11-12T02:11:23.768Z,24.35
2022-11-12T02:13:58.893Z,24.05
2022-11-12T02:16:31.461Z,25.23
2022-11-12T02:18:59.844Z,24.63
2022-11-12T02:21:30.408Z,23.98
2022-11-12T02:23:59.971Z,23.00
2022-11-12T02:26:32.976Z,25.63
2022-11-12T02:29:01.356Z,25.40
2022-11-12T02:31:29.664Z,24.35
2022-11-12T02:33:57.991Z,21.60
2022-11-12T02:36:26.510Z,24.75
2022-11-12T02:38:56.810Z,23.48
2022-11-12T02:41:25.162Z,23.40
2022-11-12T02:43:53.366Z,26.33
2022-11-12T02:46:21.640Z,24.85
2022-11-12T02:48:50.052Z,23.88
2022-11-12T02:51:18.386Z,25.02
2022-11-12T02:53:46.519Z,22.08
2022-11-12T02:56:16.531Z,22.80
2022-11-12T02:58:44.659Z,21.80
2022-11-12T03:01:12.837Z,22.77
2022-11-12T03:03:41.290Z,25.48
2022-11-12T03:06:09.729Z,22.58
2022-11-12T03:08:37.819Z,20.83
2022-11-12T03:11:10.683Z,23.15
2022-11-12T03:13:40.785Z,21.47
2022-11-12T03:16:09.651Z,20.50
2022-11-12T03:18:38.677Z,24.33
2022-11-12T03:21:07.269Z,20.88
2022-11-12T03:23:35.437Z,22.50
2022-11-12T03:26:05.122Z,21.85
2022-11-12T03:28:33.715Z,24.67
2022-11-12T03:31:03.317Z,22.73
2022-11-12T03:33:32.073Z,21.23
2022-11-12T03:36:00.216Z,23.63
2022-11-12T03:38:28.746Z,21.05
2022-11-12T03:40:57.419Z,23.48
2022-11-12T03:43:25.709Z,33.50
2022-11-12T03:45:53.818Z,80.28
2022-11-12T03:48:23.972Z,33.08
2022-11-12T03:50:52.463Z,21.60
2022-11-12T03:53:20.714Z,20.83
2022-11-12T03:55:48.978Z,22.63
2022-11-12T03:58:17.442Z,39.28
2022-11-12T04:00:46.062Z,23.13
2022-11-12T04:03:14.517Z,33.20
2022-11-12T04:06:15.715Z,21.70
2022-11-12T04:08:44.645Z,32.50
2022-11-12T04:11:14.607Z,34.00
2022-11-12T04:13:42.668Z,52.22
2022-11-12T04:16:30.508Z,30.33
2022-11-12T04:19:17.913Z,30.85
2022-11-12T04:21:54.794Z,99.28
2022-11-12T04:24:43.360Z,75.07
2022-11-12T04:27:14.033Z,43.63
2022-11-12T04:30:00.497Z,36.97
2022-11-12T04:32:29.575Z,74.53
2022-11-12T04:34:58.277Z,41.08
2022-11-12T04:37:30.381Z,25.55
2022-11-12T04:40:19.947Z,24.70
2022-11-12T04:43:06.659Z,27.65
2022-11-12T04:45:35.351Z,21.90
2022-11-12T04:48:03.749Z,23.15
2022-11-12T04:50:32.312Z,22.95
2022-11-12T04:53:02.034Z,21.55
2022-11-12T04:55:30.500Z,22.70
2022-11-12T04:58:00.784Z,21.17
2022-11-12T05:00:29.435Z,24.25
2022-11-12T05:02:57.790Z,31.25
2022-11-12T05:05:29.760Z,25.48
2022-11-12T05:08:03.769Z,25.52
2022-11-12T05:10:32.735Z,24.30
2022-11-12T05:13:01.172Z,24.13
2022-11-12T05:15:29.458Z,25.42
2022-11-12T05:17:57.822Z,22.58
2022-11-12T05:20:26.080Z,25.02
2022-11-12T05:23:06.037Z,27.17
2022-11-12T05:25:37.287Z,25.25
2022-11-12T05:28:07.015Z,22.58
2022-11-12T05:30:36.222Z,22.80
2022-11-12T05:33:04.783Z,22.17
2022-11-12T05:35:33.310Z,23.25
2022-11-12T05:38:01.390Z,21.15
2022-11-12T05:40:29.564Z,24.08
2022-11-12T05:42:59.229Z,19.88
2022-11-12T05:45:27.297Z,20.00
2022-11-12T05:47:55.794Z,20.70
2022-11-12T05:50:24.053Z,20.00
2022-11-12T05:52:52.142Z,52.55
2022-11-12T05:55:20.546Z,47.10
2022-11-12T05:57:48.899Z,32.38
2022-11-12T06:00:19.172Z,32.33
2022-11-12T06:02:47.449Z,41.13
2022-11-12T06:05:15.902Z,65.18
2022-11-12T06:07:44.031Z,90.90
2022-11-12T06:10:16.112Z,58.17
2022-11-12T06:12:47.655Z,35.90
2022-11-12T06:15:16.103Z,29.48
2022-11-12T06:17:45.876Z,28.13
2022-11-12T06:20:14.490Z,28.27
2022-11-12T06:22:42.770Z,24.33
2022-11-12T06:25:10.925Z,20.50
2022-11-12T06:27:39.060Z,21.52
2022-11-12T06:30:09.253Z,20.85
2022-11-12T06:32:37.744Z,21.33
2022-11-12T06:35:08.299Z,18.92
2022-11-12T06:37:36.572Z,20.02
2022-11-12T06:40:05.550Z,17.85
2022-11-12T06:42:34.241Z,19.50
2022-11-12T06:45:02.749Z,19.80
2022-11-12T06:47:30.872Z,18.73
2022-11-12T06:49:59.439Z,18.38
2022-11-12T06:52:29.026Z,22.10
2022-11-12T06:54:57.374Z,21.13
2022-11-12T06:57:25.699Z,21.35
2022-11-12T06:59:54.012Z,25.75
2022-11-12T07:02:22.369Z,23.42
2022-11-12T07:04:50.445Z,25.98
2022-11-12T07:07:18.869Z,23.48
2022-11-12T07:09:48.554Z,22.98
2022-11-12T07:12:16.760Z,23.58
2022-11-12T07:14:45.027Z,24.65
2022-11-12T07:17:13.391Z,25.17
2022-11-12T07:19:41.452Z,24.20
2022-11-12T07:22:09.824Z,21.55
2022-11-12T07:24:38.136Z,23.25
2022-11-12T07:27:07.720Z,23.20
2022-11-12T07:29:47.543Z,20.17
2022-11-12T07:32:16.705Z,22.80
2022-11-12T07:34:45.029Z,18.92
2022-11-12T07:37:13.174Z,18.13
2022-11-12T07:39:41.318Z,16.85
2022-11-12T07:42:10.954Z,18.80
2022-11-12T07:44:39.062Z,17.17
2022-11-12T07:47:07.288Z,15.27
2022-11-12T07:49:35.553Z,12.98
2022-11-12T07:52:03.682Z,13.20
2022-11-12T07:54:32.019Z,11.02
2022-11-12T07:57:00.320Z,11.88
2022-11-12T07:59:29.753Z,11.55
2022-11-12T08:01:58.210Z,9.85
2022-11-12T08:04:26.376Z,10.73
2022-11-12T08:06:54.611Z,10.82
2022-11-12T08:09:22.937Z,10.07
2022-11-12T08:11:51.164Z,10.27
2022-11-12T08:14:19.243Z,9.55
2022-11-12T08:16:49.525Z,10.30
2022-11-12T08:19:17.758Z,8.50
2022-11-12T08:21:45.847Z,8.50
2022-11-12T08:24:14.226Z,8.30
2022-11-12T08:26:42.509Z,10.23
2022-11-12T08:29:10.709Z,8.60
2022-11-12T08:31:39.044Z,10.10
2022-11-12T08:34:19.954Z,8.13
2022-11-12T08:36:50.652Z,9.23
2022-11-12T08:39:18.888Z,8.68
2022-11-12T08:41:47.042Z,9.70
2022-11-12T08:44:15.853Z,7.95
2022-11-12T08:46:44.087Z,8.57
2022-11-12T08:49:13.577Z,8.38
2022-11-12T08:51:41.963Z,8.40
2022-11-12T08:54:10.359Z,8.68
2022-11-12T08:56:38.513Z,8.88
2022-11-12T08:59:07.611Z,8.32
2022-11-12T09:01:36.222Z,9.25
2022-11-12T09:04:04.690Z,9.27
2022-11-12T09:06:34.538Z,9.90
2022-11-12T09:09:02.769Z,9.00
2022-11-12T09:11:31.028Z,9.82
2022-11-12T09:13:59.321Z,9.98
2022-11-12T09:16:27.627Z,8.45
2022-11-12T09:18:55.822Z,9.43
2022-11-12T09:21:24.932Z,10.13
2022-11-12T09:23:55.764Z,10.30
2022-11-12T09:26:23.925Z,9.43
2022-11-12T09:28:52.480Z,8.60
2022-11-12T09:31:21.003Z,9.65
2022-11-12T09:33:49.175Z,9.40
2022-11-12T09:36:18.326Z,11.38
2022-11-12T09:38:46.442Z,11.48
2022-11-12T09:41:29.610Z,13.15
2022-11-12T09:44:02.336Z,11.85
2022-11-12T09:46:36.137Z,11.43
2022-11-12T09:49:08.864Z,11.32
2022-11-12T09:51:40.526Z,10.80
2022-11-12T09:54:20.311Z,10.05
2022-11-12T09:56:50.518Z,11.07
2022-11-12T09:59:19.262Z,11.20
2022-11-12T10:02:08.673Z,10.35
2022-11-12T10:04:58.043Z,11.43
2022-11-12T10:07:38.349Z,15.15
2022-11-12T10:10:14.467Z,13.23
2022-11-12T10:12:55.728Z,12.90
2022-11-12T10:16:06.280Z,10.25
2022-11-12T10:18:47.105Z,11.55
2022-11-12T10:21:21.660Z,11.45
2022-11-12T10:23:53.687Z,11.10
2022-11-12T10:26:23.880Z,12.75
2022-11-12T10:29:00.471Z,10.88
2022-11-12T10:31:28.650Z,11.30
2022-11-12T10:34:15.287Z,13.48
2022-11-12T10:36:47.838Z,12.23
2022-11-12T10:39:35.051Z,11.65
2022-11-12T10:42:14.224Z,12.02
2022-11-12T10:44:44.417Z,11.63
2022-11-12T10:47:26.112Z,12.30
2022-11-12T10:50:19.910Z,12.30
2022-11-12T10:53:00.160Z,12.30
2022-11-12T10:55:29.906Z,12.07
2022-11-12T10:58:20.977Z,12.23
2022-11-12T11:01:02.715Z,13.00
2022-11-12T11:03:34.831Z,12.02
2022-11-12T11:06:05.021Z,12.38
2022-11-12T11:08:41.499Z,11.70
2022-11-12T11:11:28.218Z,11.60
2022-11-12T11:13:57.912Z,10.85
2022-11-12T11:16:29.411Z,11.27
2022-11-12T11:18:59.731Z,11.20
2022-11-12T11:21:49.214Z,12.55
2022-11-12T11:24:29.357Z,11.32
2022-11-12T11:27:04.012Z,11.50
2022-11-12T11:29:48.340Z,12.90
2022-11-12T11:32:37.222Z,13.43
2022-11-12T11:35:15.970Z,12.73
2022-11-12T11:38:03.324Z,13.15
2022-11-12T11:40:36.902Z,13.05
2022-11-12T11:43:37.787Z,13.88
2022-11-12T11:46:15.256Z,13.10
2022-11-12T11:48:58.982Z,12.73
2022-11-12T11:51:41.672Z,14.02
2022-11-12T11:54:22.485Z,12.85
2022-11-12T11:56:53.054Z,11.43
2022-11-12T11:59:42.971Z,12.60
2022-11-12T12:02:45.185Z,13.35
2022-11-12T12:05:30.628Z,12.85
2022-11-12T12:08:04.559Z,11.70
2022-11-12T12:13:55.581Z,13.65
2022-11-12T12:16:32.680Z,12.60
2022-11-12T12:19:10.116Z,11.55
2022-11-12T12:21:42.995Z,13.90
2022-11-12T12:24:18.575Z,12.07
2022-11-12T12:26:49.900Z,12.95
2022-11-12T12:29:24.047Z,12.40
2022-11-12T12:31:56.745Z,13.32
2022-11-12T12:34:29.154Z,12.93
2022-11-12T12:37:06.344Z,13.27
2022-11-12T12:39:48.124Z,12.25
2022-11-12T12:42:21.718Z,12.23
2022-11-12T12:45:04.910Z,11.88
2022-11-12T12:47:39.556Z,12.23
2022-11-12T12:50:13.891Z,13.48
2022-11-12T12:53:03.356Z,12.93
2022-11-12T12:55:43.688Z,12.80
2022-11-12T12:58:27.234Z,12.30
2022-11-12T13:01:02.772Z,12.43
2022-11-12T13:04:00.105Z,13.63
2022-11-12T13:06:33.147Z,12.45
2022-11-12T13:09:05.941Z,13.23
2022-11-12T13:12:12.434Z,11.97
2022-11-12T13:14:53.406Z,12.38
2022-11-12T13:17:44.548Z,11.25
2022-11-12T13:20:37.444Z,11.20
2022-11-12T13:23:54.207Z,12.05
2022-11-12T13:26:59.028Z,11.95
2022-11-12T13:29:43.033Z,12.70
2022-11-12T13:32:45.031Z,13.23
2022-11-12T13:35:36.148Z,12.40
2022-11-12T13:38:13.419Z,12.20
2022-11-12T13:40:45.499Z,13.25
2022-11-12T13:43:32.878Z,11.40
2022-11-12T13:46:21.620Z,11.60
2022-11-12T13:48:53.886Z,11.57
2022-11-12T13:51:29.607Z,12.52
2022-11-12T13:53:58.260Z,12.52
2022-11-12T13:56:30.232Z,14.43
2022-11-12T13:59:14.432Z,11.85
2022-11-12T14:01:44.837Z,12.70
2022-11-12T14:04:16.440Z,11.73
2022-11-12T14:06:46.689Z,13.13
2022-11-12T14:09:27.418Z,14.45
2022-11-12T14:12:21.503Z,12.98
2022-11-12T14:15:04.849Z,13.40
2022-11-12T14:17:42.394Z,14.95
2022-11-12T14:20:26.242Z,12.63
2022-11-12T14:22:55.464Z,13.23
2022-11-12T14:25:26.048Z,13.80
2022-11-12T14:27:55.317Z,12.82
2022-11-12T14:30:25.648Z,12.93
2022-11-12T14:32:59.853Z,13.02
2022-11-12T14:35:35.303Z,14.52
2022-11-12T14:38:16.989Z,13.68
2022-11-12T14:40:49.187Z,13.50
2022-11-12T14:43:37.957Z,14.27
2022-11-12T14:46:08.137Z,12.75
2022-11-12T14:48:48.557Z,12.95
2022-11-12T14:51:17.763Z,12.43
2022-11-12T14:53:55.542Z,12.65
2022-11-12T14:56:35.143Z,11.68
2022-11-12T14:59:05.120Z,12.02
2022-11-12T15:02:14.274Z,12.75
2022-11-12T15:04:26.249Z,11.27
2022-11-12T15:06:55.833Z,11.30
2022-11-12T15:09:35.949Z,12.45
2022-11-12T15:12:06.228Z,13.18
2022-11-12T15:14:35.468Z,12.57
2022-11-12T15:17:05.757Z,11.27
2022-11-12T15:19:36.721Z,11.52
2022-11-12T15:22:06.242Z,12.40
2022-11-12T15:24:36.255Z,12.07
2022-11-12T15:27:35.898Z,11.20
2022-11-12T15:30:17.484Z,16.30
2022-11-12T15:32:46.051Z,17.38
2022-11-12T15:35:37.750Z,15.20
2022-11-12T15:38:12.113Z,14.43
2022-11-12T15:40:45.645Z,14.90
2022-11-12T15:43:17.801Z,15.88
2022-11-12T15:45:49.625Z,15.27
2022-11-12T15:48:17.940Z,17.80
2022-11-12T15:50:48.289Z,20.13
2022-11-12T15:53:16.904Z,18.15
2022-11-12T15:55:46.388Z,14.23
2022-11-12T15:58:18.635Z,17.13
2022-11-12T16:00:47.099Z,18.92
2022-11-12T16:03:17.207Z,17.67
2022-11-12T16:05:47.518Z,20.33
2022-11-12T16:08:16.040Z,15.27
2022-11-12T16:10:46.347Z,16.50
2022-11-12T16:13:17.995Z,13.63
2022-11-12T16:15:46.334Z,14.98
2022-11-12T16:18:14.598Z,15.05
2022-11-12T16:20:43.016Z,14.45
2022-11-12T16:23:12.547Z,14.77
2022-11-12T16:25:43.000Z,16.20
2022-11-12T16:28:15.430Z,14.52
2022-11-12T16:30:44.781Z,15.07
2022-11-12T16:33:14.373Z,14.75
2022-11-12T16:35:42.947Z,16.42
2022-11-12T16:38:15.828Z,16.45
2022-11-12T16:40:45.267Z,17.38
2022-11-12T16:43:13.425Z,17.98
2022-11-12T16:45:44.148Z,17.30
2022-11-12T16:48:17.007Z,17.00
2022-11-12T16:50:45.262Z,16.88
2022-11-12T16:53:14.835Z,17.27
2022-11-12T16:55:43.265Z,25.70
2022-11-12T16:58:14.982Z,22.92
2022-11-12T17:00:45.218Z,22.10
2022-11-12T17:03:13.951Z,44.63
2022-11-12T17:05:42.092Z,29.73
2022-11-12T17:08:11.445Z,26.05
2022-11-12T17:10:41.161Z,23.40
2022-11-12T17:13:13.110Z,20.40
2022-11-12T17:15:41.364Z,23.85
2022-11-12T17:18:10.349Z,23.13
2022-11-12T17:20:38.697Z,22.63
2022-11-12T17:23:06.977Z,22.20
2022-11-12T17:25:35.098Z,26.05
2022-11-12T17:28:04.915Z,26.00
2022-11-12T17:30:33.196Z,26.77
2022-11-12T17:33:01.430Z,24.35
2022-11-12T17:35:29.769Z,28.00
2022-11-12T17:37:58.109Z,26.13
2022-11-12T17:40:26.350Z,30.20
2022-11-12T17:42:54.979Z,27.83
2022-11-12T17:45:24.616Z,25.13
2022-11-12T17:47:53.118Z,26.63
2022-11-12T17:50:21.257Z,24.42
2022-11-12T17:52:49.975Z,23.23
2022-11-12T17:55:18.477Z,23.88
2022-11-12T17:57:46.621Z,26.33
2022-11-12T18:00:16.673Z,24.15
2022-11-12T18:02:46.253Z,23.08
2022-11-12T18:05:14.369Z,24.80
2022-11-12T18:07:42.759Z,26.30
2022-11-12T18:10:14.429Z,24.35
2022-11-12T18:12:45.456Z,23.77
2022-11-12T18:15:14.101Z,26.58
2022-11-12T18:17:42.391Z,24.83
2022-11-12T18:20:12.631Z,23.60
2022-11-12T18:22:44.891Z,26.92
2022-11-12T18:25:14.263Z,29.23
2022-11-12T18:27:42.420Z,27.33
2022-11-12T18:30:16.378Z,28.25
2022-11-12T18:32:47.706Z,35.30
2022-11-12T18:35:17.390Z,70.75
2022-11-12T18:37:45.900Z,39.85
2022-11-12T18:40:14.279Z,29.10
2022-11-12T18:42:42.487Z,27.42
2022-11-12T18:45:11.374Z,27.92
2022-11-12T18:47:39.690Z,25.98
2022-11-12T18:50:09.056Z,26.42
2022-11-12T18:52:38.835Z,28.48
2022-11-12T18:55:08.424Z,27.23
2022-11-12T18:57:36.534Z,29.17
2022-11-12T19:00:05.576Z,25.13
2022-11-12T19:02:34.480Z,25.58
2022-11-12T19:05:02.634Z,25.90
2022-11-12T19:07:30.845Z,28.88
2022-11-12T19:10:01.647Z,25.10
2022-11-12T19:12:29.849Z,25.48
2022-11-12T19:14:57.941Z,26.08
2022-11-12T19:17:30.610Z,26.80
2022-11-12T19:19:59.397Z,25.35
2022-11-12T19:22:28.014Z,23.90
2022-11-12T19:24:56.313Z,24.25
2022-11-12T19:27:25.831Z,22.00
2022-11-12T19:29:58.538Z,23.67
2022-11-12T19:32:30.661Z,23.98
2022-11-12T19:34:58.991Z,21.00
2022-11-12T19:37:33.583Z,21.42
2022-11-12T19:40:02.878Z,23.67
2022-11-12T19:42:32.421Z,23.02
2022-11-12T19:45:00.527Z,26.05
2022-11-12T19:47:29.068Z,24.73
2022-11-12T19:49:57.218Z,21.63
2022-11-12T19:52:26.389Z,24.40
2022-11-12T19:54:54.804Z,22.45
2022-11-12T19:57:23.017Z,24.02
2022-11-12T19:59:52.473Z,22.38
2022-11-12T20:02:21.071Z,25.85
2022-11-12T20:04:49.244Z,25.48
2022-11-12T20:07:17.553Z,24.75
2022-11-12T20:09:46.320Z,27.15
2022-11-12T20:12:14.484Z,27.50
2022-11-12T20:14:42.610Z,28.15
2022-11-12T20:17:12.385Z,28.85
2022-11-12T20:19:40.497Z,28.33
2022-11-12T20:22:08.979Z,31.13
2022-11-12T20:24:37.283Z,29.83
2022-11-12T20:27:06.145Z,29.50
2022-11-12T20:29:34.291Z,29.75
2022-11-12T20:32:02.675Z,27.15
2022-11-12T20:34:32.185Z,29.58
2022-11-12T20:37:00.346Z,29.58
2022-11-12T20:39:28.424Z,33.65
2022-11-12T20:41:57.091Z,30.38
2022-11-12T20:44:25.237Z,32.30
2022-11-12T20:46:53.354Z,30.88
2022-11-12T20:49:21.689Z,31.80
2022-11-12T20:51:51.277Z,31.88
2022-11-12T20:54:20.862Z,28.90
2022-11-12T20:56:50.824Z,29.88
2022-11-12T20:59:19.035Z,28.33
2022-11-12T21:01:47.602Z,29.50
2022-11-12T21:04:16.376Z,30.88
2022-11-12T21:06:44.903Z,23.98
2022-11-12T21:09:14.482Z,26.35
2022-11-12T21:11:43.040Z,28.15
2022-11-12T21:14:12.383Z,27.10
2022-11-12T21:16:40.707Z,25.23
2022-11-12T21:19:09.073Z,25.30
2022-11-12T21:21:38.464Z,28.42
2022-11-12T21:24:07.421Z,31.40
2022-11-12T21:26:37.338Z,28.85
2022-11-12T21:29:07.127Z,28.85
2022-11-12T21:31:35.265Z,29.23
2022-11-12T21:34:04.822Z,28.23
2022-11-12T21:36:35.509Z,28.58
2022-11-12T21:39:04.554Z,27.75
2022-11-12T21:41:33.104Z,31.58
2022-11-12T21:44:02.591Z,30.73
2022-11-12T21:46:33.032Z,29.48
2022-11-12T21:49:01.209Z,104.75
2022-11-12T21:51:31.226Z,64.88
2022-11-12T21:54:01.239Z,29.95
2022-11-12T21:56:30.162Z,26.15
2022-11-12T21:59:00.533Z,24.95
2022-11-12T22:01:32.921Z,23.20
2022-11-12T22:04:01.334Z,25.23
2022-11-12T22:06:30.893Z,32.10
2022-11-12T22:08:59.622Z,28.13
2022-11-12T22:11:28.279Z,29.35
2022-11-12T22:13:56.452Z,27.80
2022-11-12T22:16:26.457Z,30.90
2022-11-12T22:18:57.510Z,25.40
2022-11-12T22:21:27.640Z,30.52
2022-11-12T22:23:56.962Z,30.10
2022-11-12T22:26:27.214Z,33.17
2022-11-12T22:28:56.887Z,37.95
2022-11-12T22:31:27.031Z,36.03
2022-11-12T22:33:58.318Z,35.38
2022-11-12T22:36:28.604Z,31.92
2022-11-12T22:38:57.589Z,33.55
2022-11-12T22:41:27.888Z,37.47
2022-11-12T22:43:58.125Z,37.03
2022-11-12T22:46:27.690Z,36.10
2022-11-12T22:48:59.287Z,32.35
2022-11-12T22:51:30.769Z,33.75
2022-11-12T22:54:00.973Z,36.00
2022-11-12T22:56:29.698Z,35.85
2022-11-12T22:58:58.923Z,30.30
2022-11-12T23:01:29.169Z,34.28
2022-11-12T23:04:00.445Z,38.33
2022-11-12T23:06:29.993Z,38.53
2022-11-12T23:09:00.041Z,37.28
2022-11-12T23:11:28.466Z,34.97
2022-11-12T23:13:57.325Z,35.55
2022-11-12T23:16:27.404Z,37.10
2022-11-12T23:18:55.870Z,35.70
2022-11-12T23:21:27.869Z,35.30
2022-11-12T23:23:57.974Z,37.08
2022-11-12T23:26:28.819Z,36.78
2022-11-12T23:28:56.995Z,35.65
2022-11-12T23:31:26.992Z,33.00
2022-11-12T23:33:56.520Z,35.55
2022-11-12T23:36:27.530Z,33.47
2022-11-12T23:38:56.134Z,36.05
2022-11-12T23:41:27.157Z,36.45
2022-11-12T23:43:56.874Z,41.05
2022-11-12T23:46:25.651Z,47.67
2022-11-12T23:48:54.251Z,42.60
2022-11-12T23:51:23.447Z,42.88
2022-11-12T23:53:52.958Z,41.00
2022-11-12T23:56:21.284Z,37.78
2022-11-12T23:58:49.420Z,40.65
